PWSweather.com
Personal Weather Stations
Station Observations
ANTHEMNP
Anthem North Parkside, Anthem, AZ 85086

Anthem North ParksideAnthem, AZ 85086

Lat: 33.876464, Lon: -112.13861199999997

Elevation: 1930

Station Type: Davis Vantage Vue with Pro 2 console

http://www.azjerry.com/ANPW/wxindex.php

High Low Average
Temperature 95.5°F35.3°C 73.0°F22.8°C 82.6°F28.1°C
Dew Point 42.0°F5.6°C 19.0°F-7.2°C 30.6°F-0.8°C
Winds 11.9 mph 19.2 kmh Calm Calm 4.0 mph SSE6.4 kmh SSE
Wind Gusts 21.0 mph33.8 kmh 1.0 mph1.6 kmh 9.0 mph14.5 kmh
Humidity 31% 9% 16%
Pressure 30.02 in1016.6 mb 29.84 in1010.5 mb -
Precipitation 0.00 in0.0 mm - -
Hour Temp Dew Point Humidity Winds Wind Gusts Pressure Precip Precip Rate Daily Precip Total
12:00 AM 73.0°F22.8°C 33.0°F0.6°C 23% 3.8 mph NE6.1 kmh NE 8.0 mph12.9 kmh 30.00 in1015.9 mb 0.00 in0.0 mm 0.00 in0.0 mm 0.00 in0.0 mm
12:10 AM 73.7°F23.2°C 32.0°F0.0°C 22% 4.4 mph NNW7.1 kmh NNW 9.0 mph14.5 kmh 30.00 in1015.9 mb 0.00 in0.0 mm 0.00 in0.0 mm 0.00 in0.0 mm
12:20 AM 75.2°F24.0°C 29.0°F-1.7°C 18% 5.0 mph NNW8.0 kmh NNW 10.0 mph16.1 kmh 30.00 in1015.9 mb 0.00 in0.0 mm 0.00 in0.0 mm 0.00 in0.0 mm
12:30 AM 76.1°F24.5°C 30.0°F-1.1°C 18% 6.1 mph N9.8 kmh N 13.0 mph20.9 kmh 30.00 in1015.9 mb 0.00 in0.0 mm 0.00 in0.0 mm 0.00 in0.0 mm
12:40 AM 76.0°F24.4°C 27.0°F-2.8°C 16% 6.3 mph N10.1 kmh N 11.0 mph17.7 kmh 30.00 in1015.9 mb 0.00 in0.0 mm 0.00 in0.0 mm 0.00 in0.0 mm
12:50 AM 76.3°F24.6°C 27.0°F-2.8°C 16% 7.5 mph N12.1 kmh N 15.0 mph24.1 kmh 30.00 in1015.9 mb 0.00 in0.0 mm 0.00 in0.0 mm 0.00 in0.0 mm
01:00 AM 76.1°F24.5°C 27.0°F-2.8°C 16% 7.3 mph NNW11.7 kmh NNW 13.0 mph20.9 kmh 30.00 in1015.9 mb 0.00 in0.0 mm 0.00 in0.0 mm 0.00 in0.0 mm
01:10 AM 75.9°F24.4°C 27.0°F-2.8°C 16% 7.2 mph NNE11.6 kmh NNE 14.0 mph22.5 kmh 30.00 in1015.9 mb 0.00 in0.0 mm 0.00 in0.0 mm 0.00 in0.0 mm
01:20 AM 75.7°F24.3°C 26.0°F-3.3°C 16% 7.1 mph NE11.4 kmh NE 11.0 mph17.7 kmh 30.00 in1015.9 mb 0.00 in0.0 mm 0.00 in0.0 mm 0.00 in0.0 mm
01:30 AM 75.8°F24.3°C 26.0°F-3.3°C 16% 7.1 mph NE11.4 kmh NE 13.0 mph20.9 kmh 30.00 in1015.9 mb 0.00 in0.0 mm 0.00 in0.0 mm 0.00 in0.0 mm
01:40 AM 76.1°F24.5°C 25.0°F-3.9°C 15% 7.6 mph N12.2 kmh N 14.0 mph22.5 kmh 30.00 in1015.9 mb 0.00 in0.0 mm 0.00 in0.0 mm 0.00 in0.0 mm
01:50 AM 76.3°F24.6°C 24.0°F-4.4°C 14% 7.8 mph NNE12.6 kmh NNE 19.0 mph30.6 kmh 30.00 in1015.9 mb 0.00 in0.0 mm 0.00 in0.0 mm 0.00 in0.0 mm
02:00 AM 76.8°F24.9°C 22.0°F-5.6°C 13% 8.6 mph ENE13.8 kmh ENE 15.0 mph24.1 kmh 30.00 in1015.9 mb 0.00 in0.0 mm 0.00 in0.0 mm 0.00 in0.0 mm
02:10 AM 76.6°F24.8°C 22.0°F-5.6°C 13% 8.9 mph N14.3 kmh N 16.0 mph25.7 kmh 30.00 in1015.9 mb 0.00 in0.0 mm 0.00 in0.0 mm 0.00 in0.0 mm
02:20 AM 76.8°F24.9°C 22.0°F-5.6°C 13% 8.7 mph NNE14.0 kmh NNE 16.0 mph25.7 kmh 29.99 in1015.6 mb 0.00 in0.0 mm 0.00 in0.0 mm 0.00 in0.0 mm
02:30 AM 76.4°F24.7°C 22.0°F-5.6°C 13% 8.5 mph NE13.7 kmh NE 15.0 mph24.1 kmh 29.99 in1015.6 mb 0.00 in0.0 mm 0.00 in0.0 mm 0.00 in0.0 mm
02:40 AM 77.0°F25.0°C 21.0°F-6.1°C 12% 10.3 mph NNE16.6 kmh NNE 19.0 mph30.6 kmh 29.99 in1015.6 mb 0.00 in0.0 mm 0.00 in0.0 mm 0.00 in0.0 mm
02:50 AM 77.1°F25.1°C 21.0°F-6.1°C 12% 9.7 mph N15.6 kmh N 17.0 mph27.4 kmh 29.99 in1015.6 mb 0.00 in0.0 mm 0.00 in0.0 mm 0.00 in0.0 mm
03:00 AM 76.7°F24.8°C 22.0°F-5.6°C 13% 10.0 mph N16.1 kmh N 19.0 mph30.6 kmh 29.98 in1015.2 mb 0.00 in0.0 mm 0.00 in0.0 mm 0.00 in0.0 mm
03:10 AM 76.7°F24.8°C 20.0°F-6.7°C 12% 9.2 mph NE14.8 kmh NE 19.0 mph30.6 kmh 29.98 in1015.2 mb 0.00 in0.0 mm 0.00 in0.0 mm 0.00 in0.0 mm
03:20 AM 76.5°F24.7°C 20.0°F-6.7°C 12% 10.3 mph NNW16.6 kmh NNW 17.0 mph27.4 kmh 29.98 in1015.2 mb 0.00 in0.0 mm 0.00 in0.0 mm 0.00 in0.0 mm
03:30 AM 76.3°F24.6°C 20.0°F-6.7°C 12% 9.5 mph NE15.3 kmh NE 17.0 mph27.4 kmh 29.98 in1015.2 mb 0.00 in0.0 mm 0.00 in0.0 mm 0.00 in0.0 mm
03:40 AM 76.0°F24.4°C 20.0°F-6.7°C 12% 9.3 mph N15.0 kmh N 16.0 mph25.7 kmh 29.98 in1015.2 mb 0.00 in0.0 mm 0.00 in0.0 mm 0.00 in0.0 mm
03:50 AM 76.0°F24.4°C 20.0°F-6.7°C 12% 9.9 mph NNW15.9 kmh NNW 19.0 mph30.6 kmh 29.97 in1014.9 mb 0.00 in0.0 mm 0.00 in0.0 mm 0.00 in0.0 mm
04:00 AM 75.8°F24.3°C 21.0°F-6.1°C 13% 9.6 mph NE15.4 kmh NE 17.0 mph27.4 kmh 29.97 in1014.9 mb 0.00 in0.0 mm 0.00 in0.0 mm 0.00 in0.0 mm
04:10 AM 75.9°F24.4°C 20.0°F-6.7°C 12% 9.3 mph N15.0 kmh N 17.0 mph27.4 kmh 29.97 in1014.9 mb 0.00 in0.0 mm 0.00 in0.0 mm 0.00 in0.0 mm
04:20 AM 76.4°F24.7°C 20.0°F-6.7°C 12% 10.0 mph NNE16.1 kmh NNE 20.0 mph32.2 kmh 29.97 in1014.9 mb 0.00 in0.0 mm 0.00 in0.0 mm 0.00 in0.0 mm
04:30 AM 76.4°F24.7°C 20.0°F-6.7°C 12% 9.4 mph N15.1 kmh N 17.0 mph27.4 kmh 29.98 in1015.2 mb 0.00 in0.0 mm 0.00 in0.0 mm 0.00 in0.0 mm
04:40 AM 77.1°F25.1°C 19.0°F-7.2°C 11% 11.2 mph N18.0 kmh N 21.0 mph33.8 kmh 29.98 in1015.2 mb 0.00 in0.0 mm 0.00 in0.0 mm 0.00 in0.0 mm
04:50 AM 77.1°F25.1°C 19.0°F-7.2°C 11% 11.0 mph N17.7 kmh N 20.0 mph32.2 kmh 29.98 in1015.2 mb 0.00 in0.0 mm 0.00 in0.0 mm 0.00 in0.0 mm
05:00 AM 76.3°F24.6°C 20.0°F-6.7°C 12% 9.9 mph NW15.9 kmh NW 21.0 mph33.8 kmh 29.98 in1015.2 mb 0.00 in0.0 mm 0.00 in0.0 mm 0.00 in0.0 mm
05:10 AM 75.5°F24.2°C 21.0°F-6.1°C 13% 9.3 mph N15.0 kmh N 15.0 mph24.1 kmh 29.98 in1015.2 mb 0.00 in0.0 mm 0.00 in0.0 mm 0.00 in0.0 mm
05:20 AM 75.2°F24.0°C 21.0°F-6.1°C 13% 9.2 mph N14.8 kmh N 18.0 mph29.0 kmh 29.98 in1015.2 mb 0.00 in0.0 mm 0.00 in0.0 mm 0.00 in0.0 mm
05:30 AM 74.6°F23.7°C 22.0°F-5.6°C 14% 9.9 mph N15.9 kmh N 18.0 mph29.0 kmh 29.99 in1015.6 mb 0.00 in0.0 mm 0.00 in0.0 mm 0.00 in0.0 mm
05:40 AM 74.6°F23.7°C 22.0°F-5.6°C 14% 9.8 mph NW15.8 kmh NW 18.0 mph29.0 kmh 29.99 in1015.6 mb 0.00 in0.0 mm 0.00 in0.0 mm 0.00 in0.0 mm
05:50 AM 74.7°F23.7°C 22.0°F-5.6°C 14% 9.3 mph N15.0 kmh N 17.0 mph27.4 kmh 29.99 in1015.6 mb 0.00 in0.0 mm 0.00 in0.0 mm 0.00 in0.0 mm
06:00 AM 74.9°F23.8°C 21.0°F-6.1°C 13% 10.3 mph NNW16.6 kmh NNW 17.0 mph27.4 kmh 29.99 in1015.6 mb 0.00 in0.0 mm 0.00 in0.0 mm 0.00 in0.0 mm
06:10 AM 75.0°F23.9°C 21.0°F-6.1°C 13% 9.8 mph N15.8 kmh N 16.0 mph25.7 kmh 29.99 in1015.6 mb 0.00 in0.0 mm 0.00 in0.0 mm 0.00 in0.0 mm
06:20 AM 74.5°F23.6°C 22.0°F-5.6°C 14% 9.2 mph N14.8 kmh N 17.0 mph27.4 kmh 29.99 in1015.6 mb 0.00 in0.0 mm 0.00 in0.0 mm 0.00 in0.0 mm
06:30 AM 74.2°F23.4°C 22.0°F-5.6°C 14% 9.9 mph N15.9 kmh N 18.0 mph29.0 kmh 29.99 in1015.6 mb 0.00 in0.0 mm 0.00 in0.0 mm 0.00 in0.0 mm
06:40 AM 74.1°F23.4°C 22.0°F-5.6°C 14% 9.4 mph N15.1 kmh N 18.0 mph29.0 kmh 29.99 in1015.6 mb 0.00 in0.0 mm 0.00 in0.0 mm 0.00 in0.0 mm
06:50 AM 75.2°F24.0°C 21.0°F-6.1°C 13% 11.9 mph N19.2 kmh N 20.0 mph32.2 kmh 29.99 in1015.6 mb 0.00 in0.0 mm 0.00 in0.0 mm 0.00 in0.0 mm
07:00 AM 74.2°F23.4°C 22.0°F-5.6°C 14% 9.2 mph NE14.8 kmh NE 17.0 mph27.4 kmh 29.99 in1015.6 mb 0.00 in0.0 mm 0.00 in0.0 mm 0.00 in0.0 mm
07:10 AM 74.3°F23.5°C 22.0°F-5.6°C 14% 10.3 mph NE16.6 kmh NE 17.0 mph27.4 kmh 30.00 in1015.9 mb 0.00 in0.0 mm 0.00 in0.0 mm 0.00 in0.0 mm
07:20 AM 74.2°F23.4°C 22.0°F-5.6°C 14% 11.0 mph N17.7 kmh N 19.0 mph30.6 kmh 30.00 in1015.9 mb 0.00 in0.0 mm 0.00 in0.0 mm 0.00 in0.0 mm
07:30 AM 75.1°F23.9°C 21.0°F-6.1°C 13% 11.1 mph N17.9 kmh N 19.0 mph30.6 kmh 30.00 in1015.9 mb 0.00 in0.0 mm 0.00 in0.0 mm 0.00 in0.0 mm
07:40 AM 75.5°F24.2°C 21.0°F-6.1°C 13% 10.9 mph N17.5 kmh N 19.0 mph30.6 kmh 30.00 in1015.9 mb 0.00 in0.0 mm 0.00 in0.0 mm 0.00 in0.0 mm
07:50 AM 76.1°F24.5°C 22.0°F-5.6°C 13% 10.3 mph NNE16.6 kmh NNE 19.0 mph30.6 kmh 30.01 in1016.3 mb 0.00 in0.0 mm 0.00 in0.0 mm 0.00 in0.0 mm
08:00 AM 76.7°F24.8°C 22.0°F-5.6°C 13% 11.5 mph NE18.5 kmh NE 19.0 mph30.6 kmh 30.01 in1016.3 mb 0.00 in0.0 mm 0.00 in0.0 mm 0.00 in0.0 mm
08:10 AM 77.7°F25.4°C 21.0°F-6.1°C 12% 11.2 mph NNE18.0 kmh NNE 20.0 mph32.2 kmh 30.01 in1016.3 mb 0.00 in0.0 mm 0.00 in0.0 mm 0.00 in0.0 mm
08:20 AM 78.4°F25.8°C 22.0°F-5.6°C 12% 10.1 mph N16.3 kmh N 19.0 mph30.6 kmh 30.02 in1016.6 mb 0.00 in0.0 mm 0.00 in0.0 mm 0.00 in0.0 mm
08:30 AM 78.8°F26.0°C 24.0°F-4.4°C 13% 9.6 mph N15.4 kmh N 16.0 mph25.7 kmh 30.01 in1016.3 mb 0.00 in0.0 mm 0.00 in0.0 mm 0.00 in0.0 mm
08:40 AM 79.2°F26.2°C 24.0°F-4.4°C 13% 8.5 mph NNW13.7 kmh NNW 17.0 mph27.4 kmh 30.02 in1016.6 mb 0.00 in0.0 mm 0.00 in0.0 mm 0.00 in0.0 mm
08:50 AM 79.2°F26.2°C 24.0°F-4.4°C 13% 7.6 mph NNE12.2 kmh NNE 16.0 mph25.7 kmh 30.01 in1016.3 mb 0.00 in0.0 mm 0.00 in0.0 mm 0.00 in0.0 mm
09:00 AM 80.0°F26.7°C 25.0°F-3.9°C 13% 7.6 mph NNE12.2 kmh NNE 13.0 mph20.9 kmh 30.02 in1016.6 mb 0.00 in0.0 mm 0.00 in0.0 mm 0.00 in0.0 mm
09:10 AM 80.6°F27.0°C 25.0°F-3.9°C 13% 7.3 mph NNE11.7 kmh NNE 12.0 mph19.3 kmh 30.02 in1016.6 mb 0.00 in0.0 mm 0.00 in0.0 mm 0.00 in0.0 mm
09:20 AM 81.0°F27.2°C 26.0°F-3.3°C 13% 7.3 mph NNW11.7 kmh NNW 13.0 mph20.9 kmh 30.01 in1016.3 mb 0.00 in0.0 mm 0.00 in0.0 mm 0.00 in0.0 mm
09:30 AM 81.8°F27.7°C 26.0°F-3.3°C 13% 5.9 mph NE9.5 kmh NE 11.0 mph17.7 kmh 30.01 in1016.3 mb 0.00 in0.0 mm 0.00 in0.0 mm 0.00 in0.0 mm
09:40 AM 82.4°F28.0°C 25.0°F-3.9°C 12% 5.2 mph N8.4 kmh N 10.0 mph16.1 kmh 30.01 in1016.3 mb 0.00 in0.0 mm 0.00 in0.0 mm 0.00 in0.0 mm
09:50 AM 83.2°F28.4°C 27.0°F-2.8°C 13% 5.3 mph N8.5 kmh N 11.0 mph17.7 kmh 30.01 in1016.3 mb 0.00 in0.0 mm 0.00 in0.0 mm 0.00 in0.0 mm
10:00 AM 84.0°F28.9°C 28.0°F-2.2°C 13% 5.0 mph N8.0 kmh N 10.0 mph16.1 kmh 30.01 in1016.3 mb 0.00 in0.0 mm 0.00 in0.0 mm 0.00 in0.0 mm
10:10 AM 84.6°F29.2°C 27.0°F-2.8°C 12% 4.2 mph NNE6.8 kmh NNE 9.0 mph14.5 kmh 30.01 in1016.3 mb 0.00 in0.0 mm 0.00 in0.0 mm 0.00 in0.0 mm
10:20 AM 85.3°F29.6°C 27.0°F-2.8°C 12% 3.0 mph NW4.8 kmh NW 7.0 mph11.3 kmh 30.00 in1015.9 mb 0.00 in0.0 mm 0.00 in0.0 mm 0.00 in0.0 mm
10:30 AM 85.9°F29.9°C 30.0°F-1.1°C 13% 1.9 mph NNW3.1 kmh NNW 5.0 mph8.0 kmh 30.00 in1015.9 mb 0.00 in0.0 mm 0.00 in0.0 mm 0.00 in0.0 mm
10:40 AM 86.7°F30.4°C 30.0°F-1.1°C 13% 1.4 mph SSW2.3 kmh SSW 4.0 mph6.4 kmh 30.00 in1015.9 mb 0.00 in0.0 mm 0.00 in0.0 mm 0.00 in0.0 mm
10:50 AM 88.0°F31.1°C 27.0°F-2.8°C 11% 1.4 mph SE2.3 kmh SE 5.0 mph8.0 kmh 30.00 in1015.9 mb 0.00 in0.0 mm 0.00 in0.0 mm 0.00 in0.0 mm
11:00 AM 88.7°F31.5°C 30.0°F-1.1°C 12% 1.0 mph SW1.6 kmh SW 4.0 mph6.4 kmh 29.99 in1015.6 mb 0.00 in0.0 mm 0.00 in0.0 mm 0.00 in0.0 mm
11:10 AM 90.1°F32.3°C 29.0°F-1.7°C 11% 0.8 mph SW1.3 kmh SW 3.0 mph4.8 kmh 29.99 in1015.6 mb 0.00 in0.0 mm 0.00 in0.0 mm 0.00 in0.0 mm
11:20 AM 90.7°F32.6°C 29.0°F-1.7°C 11% 1.0 mph ESE1.6 kmh ESE 4.0 mph6.4 kmh 29.98 in1015.2 mb 0.00 in0.0 mm 0.00 in0.0 mm 0.00 in0.0 mm
11:30 AM 90.6°F32.6°C 27.0°F-2.8°C 10% 1.5 mph S2.4 kmh S 5.0 mph8.0 kmh 29.98 in1015.2 mb 0.00 in0.0 mm 0.00 in0.0 mm 0.00 in0.0 mm
11:40 AM 91.2°F32.9°C 27.0°F-2.8°C 10% 1.5 mph SW2.4 kmh SW 5.0 mph8.0 kmh 29.98 in1015.2 mb 0.00 in0.0 mm 0.00 in0.0 mm 0.00 in0.0 mm
11:50 AM 91.2°F32.9°C 30.0°F-1.1°C 11% 1.4 mph S2.3 kmh S 4.0 mph6.4 kmh 29.98 in1015.2 mb 0.00 in0.0 mm 0.00 in0.0 mm 0.00 in0.0 mm
12:00 PM 91.9°F33.3°C 25.0°F-3.9°C 9% 1.2 mph SE1.9 kmh SE 6.0 mph9.7 kmh 29.97 in1014.9 mb 0.00 in0.0 mm 0.00 in0.0 mm 0.00 in0.0 mm
12:10 PM 92.7°F33.7°C 29.0°F-1.7°C 10% 0.7 mph W1.1 kmh W 2.0 mph3.2 kmh 29.96 in1014.6 mb 0.00 in0.0 mm 0.00 in0.0 mm 0.00 in0.0 mm
12:20 PM 91.9°F33.3°C 25.0°F-3.9°C 9% 1.0 mph N1.6 kmh N 5.0 mph8.0 kmh 29.96 in1014.6 mb 0.00 in0.0 mm 0.00 in0.0 mm 0.00 in0.0 mm
12:30 PM 92.4°F33.6°C 33.0°F0.6°C 12% 0.3 mph N0.5 kmh N 3.0 mph4.8 kmh 29.95 in1014.2 mb 0.00 in0.0 mm 0.00 in0.0 mm 0.00 in0.0 mm
12:40 PM 93.5°F34.2°C 29.0°F-1.7°C 10% 1.7 mph SE2.7 kmh SE 5.0 mph8.0 kmh 29.95 in1014.2 mb 0.00 in0.0 mm 0.00 in0.0 mm 0.00 in0.0 mm
12:50 PM 93.7°F34.3°C 32.0°F0.0°C 11% 1.9 mph N3.1 kmh N 5.0 mph8.0 kmh 29.94 in1013.9 mb 0.00 in0.0 mm 0.00 in0.0 mm 0.00 in0.0 mm
01:00 PM 93.9°F34.4°C 32.0°F0.0°C 11% 2.4 mph S3.9 kmh S 13.0 mph20.9 kmh 29.94 in1013.9 mb 0.00 in0.0 mm 0.00 in0.0 mm 0.00 in0.0 mm
01:10 PM 93.8°F34.3°C 32.0°F0.0°C 11% 2.3 mph SW3.7 kmh SW 5.0 mph8.0 kmh 29.93 in1013.5 mb 0.00 in0.0 mm 0.00 in0.0 mm 0.00 in0.0 mm
01:20 PM 94.0°F34.4°C 34.0°F1.1°C 12% 1.4 mph NNW2.3 kmh NNW 5.0 mph8.0 kmh 29.92 in1013.2 mb 0.00 in0.0 mm 0.00 in0.0 mm 0.00 in0.0 mm
01:30 PM 94.8°F34.9°C 35.0°F1.7°C 12% 2.5 mph ESE4.0 kmh ESE 8.0 mph12.9 kmh 29.92 in1013.2 mb 0.00 in0.0 mm 0.00 in0.0 mm 0.00 in0.0 mm
01:40 PM 93.9°F34.4°C 34.0°F1.1°C 12% 3.9 mph SSW6.3 kmh SSW 10.0 mph16.1 kmh 29.91 in1012.9 mb 0.00 in0.0 mm 0.00 in0.0 mm 0.00 in0.0 mm
01:50 PM 93.6°F34.2°C 34.0°F1.1°C 12% 2.5 mph SSW4.0 kmh SSW 7.0 mph11.3 kmh 29.91 in1012.9 mb 0.00 in0.0 mm 0.00 in0.0 mm 0.00 in0.0 mm
02:00 PM 93.9°F34.4°C 36.0°F2.2°C 13% 3.2 mph SSE5.1 kmh SSE 7.0 mph11.3 kmh 29.91 in1012.9 mb 0.00 in0.0 mm 0.00 in0.0 mm 0.00 in0.0 mm
02:10 PM 94.8°F34.9°C 35.0°F1.7°C 12% 1.9 mph SSE3.1 kmh SSE 6.0 mph9.7 kmh 29.90 in1012.5 mb 0.00 in0.0 mm 0.00 in0.0 mm 0.00 in0.0 mm
02:20 PM 94.5°F34.7°C 37.0°F2.8°C 13% 2.9 mph WSW4.7 kmh WSW 8.0 mph12.9 kmh 29.90 in1012.5 mb 0.00 in0.0 mm 0.00 in0.0 mm 0.00 in0.0 mm
02:30 PM 94.8°F34.9°C 35.0°F1.7°C 12% 2.2 mph SW3.5 kmh SW 7.0 mph11.3 kmh 29.89 in1012.2 mb 0.00 in0.0 mm 0.00 in0.0 mm 0.00 in0.0 mm
02:40 PM 95.1°F35.1°C 37.0°F2.8°C 13% 1.5 mph NNE2.4 kmh NNE 4.0 mph6.4 kmh 29.89 in1012.2 mb 0.00 in0.0 mm 0.00 in0.0 mm 0.00 in0.0 mm
02:50 PM 94.5°F34.7°C 38.0°F3.3°C 14% 0.8 mph NNE1.3 kmh NNE 3.0 mph4.8 kmh 29.89 in1012.2 mb 0.00 in0.0 mm 0.00 in0.0 mm 0.00 in0.0 mm
03:00 PM 95.5°F35.3°C 35.0°F1.7°C 12% 1.5 mph ESE2.4 kmh ESE 5.0 mph8.0 kmh 29.88 in1011.9 mb 0.00 in0.0 mm 0.00 in0.0 mm 0.00 in0.0 mm
03:10 PM 95.3°F35.2°C 35.0°F1.7°C 12% 1.4 mph SW2.3 kmh SW 6.0 mph9.7 kmh 29.88 in1011.9 mb 0.00 in0.0 mm 0.00 in0.0 mm 0.00 in0.0 mm
03:20 PM 94.7°F34.8°C 37.0°F2.8°C 13% 1.3 mph SW2.1 kmh SW 6.0 mph9.7 kmh 29.88 in1011.9 mb 0.00 in0.0 mm 0.00 in0.0 mm 0.00 in0.0 mm
03:30 PM 94.6°F34.8°C 35.0°F1.7°C 12% 2.3 mph E3.7 kmh E 5.0 mph8.0 kmh 29.87 in1011.5 mb 0.00 in0.0 mm 0.00 in0.0 mm 0.00 in0.0 mm
03:40 PM 94.4°F34.7°C 36.0°F2.2°C 13% 0.4 mph WNW0.6 kmh WNW 3.0 mph4.8 kmh 29.87 in1011.5 mb 0.00 in0.0 mm 0.00 in0.0 mm 0.00 in0.0 mm
03:50 PM 94.5°F34.7°C 40.0°F4.4°C 15% 0.8 mph WSW1.3 kmh WSW 3.0 mph4.8 kmh 29.87 in1011.5 mb 0.00 in0.0 mm 0.00 in0.0 mm 0.00 in0.0 mm
04:00 PM 94.5°F34.7°C 38.0°F3.3°C 14% 2.0 mph S3.2 kmh S 6.0 mph9.7 kmh 29.86 in1011.2 mb 0.00 in0.0 mm 0.00 in0.0 mm 0.00 in0.0 mm
04:10 PM 94.2°F34.6°C 36.0°F2.2°C 13% 2.5 mph SSW4.0 kmh SSW 6.0 mph9.7 kmh 29.86 in1011.2 mb 0.00 in0.0 mm 0.00 in0.0 mm 0.00 in0.0 mm
04:20 PM 93.9°F34.4°C 40.0°F4.4°C 15% 1.7 mph SSW2.7 kmh SSW 5.0 mph8.0 kmh 29.86 in1011.2 mb 0.00 in0.0 mm 0.00 in0.0 mm 0.00 in0.0 mm
04:30 PM 93.1°F33.9°C 39.0°F3.9°C 15% 0.2 mph SW0.3 kmh SW 2.0 mph3.2 kmh 29.86 in1011.2 mb 0.00 in0.0 mm 0.00 in0.0 mm 0.00 in0.0 mm
04:40 PM 93.0°F33.9°C 39.0°F3.9°C 15% 0.7 mph ESE1.1 kmh ESE 4.0 mph6.4 kmh 29.85 in1010.8 mb 0.00 in0.0 mm 0.00 in0.0 mm 0.00 in0.0 mm
04:50 PM 92.8°F33.8°C 39.0°F3.9°C 15% 1.5 mph SW2.4 kmh SW 5.0 mph8.0 kmh 29.85 in1010.8 mb 0.00 in0.0 mm 0.00 in0.0 mm 0.00 in0.0 mm
05:00 PM 92.5°F33.6°C 40.0°F4.4°C 16% 1.8 mph SW2.9 kmh SW 5.0 mph8.0 kmh 29.85 in1010.8 mb 0.00 in0.0 mm 0.00 in0.0 mm 0.00 in0.0 mm
05:10 PM 92.1°F33.4°C 40.0°F4.4°C 16% 0.8 mph SW1.3 kmh SW 3.0 mph4.8 kmh 29.85 in1010.8 mb 0.00 in0.0 mm 0.00 in0.0 mm 0.00 in0.0 mm
05:20 PM 91.6°F33.1°C 38.0°F3.3°C 15% 0.3 mph NW0.5 kmh NW 3.0 mph4.8 kmh 29.85 in1010.8 mb 0.00 in0.0 mm 0.00 in0.0 mm 0.00 in0.0 mm
05:30 PM 90.9°F32.7°C 37.0°F2.8°C 15% 0.3 mph SW0.5 kmh SW 2.0 mph3.2 kmh 29.84 in1010.5 mb 0.00 in0.0 mm 0.00 in0.0 mm 0.00 in0.0 mm
05:40 PM 90.4°F32.4°C 37.0°F2.8°C 15% 0.8 mph SSE1.3 kmh SSE 3.0 mph4.8 kmh 29.84 in1010.5 mb 0.00 in0.0 mm 0.00 in0.0 mm 0.00 in0.0 mm
05:50 PM 89.6°F32.0°C 38.0°F3.3°C 16% 0.1 mph S0.2 kmh S 1.0 mph1.6 kmh 29.84 in1010.5 mb 0.00 in0.0 mm 0.00 in0.0 mm 0.00 in0.0 mm
06:00 PM 88.7°F31.5°C 39.0°F3.9°C 17% Calm Calm 1.0 mph1.6 kmh 29.84 in1010.5 mb 0.00 in0.0 mm 0.00 in0.0 mm 0.00 in0.0 mm
06:10 PM 87.8°F31.0°C 38.0°F3.3°C 17% Calm Calm 1.0 mph1.6 kmh 29.84 in1010.5 mb 0.00 in0.0 mm 0.00 in0.0 mm 0.00 in0.0 mm
06:20 PM 86.8°F30.4°C 38.0°F3.3°C 18% Calm Calm 1.0 mph1.6 kmh 29.84 in1010.5 mb 0.00 in0.0 mm 0.00 in0.0 mm 0.00 in0.0 mm
06:30 PM 85.9°F29.9°C 38.0°F3.3°C 18% Calm Calm 1.0 mph1.6 kmh 29.84 in1010.5 mb 0.00 in0.0 mm 0.00 in0.0 mm 0.00 in0.0 mm
06:40 PM 85.7°F29.8°C 38.0°F3.3°C 18% 0.2 mph SE0.3 kmh SE 3.0 mph4.8 kmh 29.84 in1010.5 mb 0.00 in0.0 mm 0.00 in0.0 mm 0.00 in0.0 mm
06:50 PM 85.3°F29.6°C 36.0°F2.2°C 17% 0.5 mph SW0.8 kmh SW 3.0 mph4.8 kmh 29.84 in1010.5 mb 0.00 in0.0 mm 0.00 in0.0 mm 0.00 in0.0 mm
07:00 PM 84.7°F29.3°C 37.0°F2.8°C 18% Calm Calm 1.0 mph1.6 kmh 29.84 in1010.5 mb 0.00 in0.0 mm 0.00 in0.0 mm 0.00 in0.0 mm
07:10 PM 83.3°F28.5°C 41.0°F5.0°C 22% Calm Calm 1.0 mph1.6 kmh 29.84 in1010.5 mb 0.00 in0.0 mm 0.00 in0.0 mm 0.00 in0.0 mm
07:20 PM 82.2°F27.9°C 39.0°F3.9°C 21% 0.1 mph ENE0.2 kmh ENE 1.0 mph1.6 kmh 29.85 in1010.8 mb 0.00 in0.0 mm 0.00 in0.0 mm 0.00 in0.0 mm
07:30 PM 82.6°F28.1°C 40.0°F4.4°C 22% 0.6 mph NNE1.0 kmh NNE 2.0 mph3.2 kmh 29.85 in1010.8 mb 0.00 in0.0 mm 0.00 in0.0 mm 0.00 in0.0 mm
07:40 PM 82.3°F27.9°C 39.0°F3.9°C 21% 0.5 mph NNE0.8 kmh NNE 2.0 mph3.2 kmh 29.85 in1010.8 mb 0.00 in0.0 mm 0.00 in0.0 mm 0.00 in0.0 mm
07:50 PM 82.3°F27.9°C 39.0°F3.9°C 21% 0.9 mph NNE1.4 kmh NNE 2.0 mph3.2 kmh 29.85 in1010.8 mb 0.00 in0.0 mm 0.00 in0.0 mm 0.00 in0.0 mm
08:00 PM 81.6°F27.6°C 38.0°F3.3°C 21% 0.2 mph NNE0.3 kmh NNE 1.0 mph1.6 kmh 29.85 in1010.8 mb 0.00 in0.0 mm 0.00 in0.0 mm 0.00 in0.0 mm
08:10 PM 81.2°F27.3°C 39.0°F3.9°C 22% 0.2 mph NNE0.3 kmh NNE 1.0 mph1.6 kmh 29.85 in1010.8 mb 0.00 in0.0 mm 0.00 in0.0 mm 0.00 in0.0 mm
08:20 PM 80.4°F26.9°C 39.0°F3.9°C 23% 0.2 mph N0.3 kmh N 1.0 mph1.6 kmh 29.85 in1010.8 mb 0.00 in0.0 mm 0.00 in0.0 mm 0.00 in0.0 mm
08:30 PM 79.9°F26.6°C 38.0°F3.3°C 22% 0.7 mph NNE1.1 kmh NNE 2.0 mph3.2 kmh 29.86 in1011.2 mb 0.00 in0.0 mm 0.00 in0.0 mm 0.00 in0.0 mm
08:40 PM 80.4°F26.9°C 37.0°F2.8°C 21% 1.2 mph NNE1.9 kmh NNE 2.0 mph3.2 kmh 29.86 in1011.2 mb 0.00 in0.0 mm 0.00 in0.0 mm 0.00 in0.0 mm
08:50 PM 80.0°F26.7°C 37.0°F2.8°C 21% Calm Calm 1.0 mph1.6 kmh 29.86 in1011.2 mb 0.00 in0.0 mm 0.00 in0.0 mm 0.00 in0.0 mm
09:00 PM 79.8°F26.6°C 38.0°F3.3°C 22% Calm Calm 1.0 mph1.6 kmh 29.85 in1010.8 mb 0.00 in0.0 mm 0.00 in0.0 mm 0.00 in0.0 mm
09:10 PM 78.1°F25.6°C 38.0°F3.3°C 24% 0.6 mph N1.0 kmh N 3.0 mph4.8 kmh 29.85 in1010.8 mb 0.00 in0.0 mm 0.00 in0.0 mm 0.00 in0.0 mm
09:20 PM 78.5°F25.8°C 38.0°F3.3°C 23% 0.9 mph NNE1.4 kmh NNE 2.0 mph3.2 kmh 29.86 in1011.2 mb 0.00 in0.0 mm 0.00 in0.0 mm 0.00 in0.0 mm
09:30 PM 77.9°F25.5°C 38.0°F3.3°C 24% 0.4 mph NNE0.6 kmh NNE 2.0 mph3.2 kmh 29.85 in1010.8 mb 0.00 in0.0 mm 0.00 in0.0 mm 0.00 in0.0 mm
09:40 PM 77.0°F25.0°C 39.0°F3.9°C 25% 0.1 mph NNE0.2 kmh NNE 1.0 mph1.6 kmh 29.85 in1010.8 mb 0.00 in0.0 mm 0.00 in0.0 mm 0.00 in0.0 mm
09:52 PM 75.8°F24.3°C 38.0°F3.3°C 26% 0.5 mph N0.8 kmh N 2.0 mph3.2 kmh 29.85 in1010.8 mb 0.00 in0.0 mm 0.00 in0.0 mm 0.00 in0.0 mm
10:00 PM 76.0°F24.4°C 39.0°F3.9°C 26% 1.0 mph NNE1.6 kmh NNE 2.0 mph3.2 kmh 29.85 in1010.8 mb 0.00 in0.0 mm 0.00 in0.0 mm 0.00 in0.0 mm
10:10 PM 75.6°F24.2°C 40.0°F4.4°C 28% 2.3 mph N3.7 kmh N 4.0 mph6.4 kmh 29.85 in1010.8 mb 0.00 in0.0 mm 0.00 in0.0 mm 0.00 in0.0 mm
10:20 PM 75.8°F24.3°C 40.0°F4.4°C 28% 2.3 mph NNE3.7 kmh NNE 5.0 mph8.0 kmh 29.85 in1010.8 mb 0.00 in0.0 mm 0.00 in0.0 mm 0.00 in0.0 mm
10:30 PM 76.4°F24.7°C 40.0°F4.4°C 27% 2.7 mph NNE4.3 kmh NNE 5.0 mph8.0 kmh 29.85 in1010.8 mb 0.00 in0.0 mm 0.00 in0.0 mm 0.00 in0.0 mm
10:40 PM 76.4°F24.7°C 41.0°F5.0°C 28% 3.2 mph NNE5.1 kmh NNE 6.0 mph9.7 kmh 29.85 in1010.8 mb 0.00 in0.0 mm 0.00 in0.0 mm 0.00 in0.0 mm
10:50 PM 76.5°F24.7°C 41.0°F5.0°C 28% 3.1 mph N5.0 kmh N 7.0 mph11.3 kmh 29.85 in1010.8 mb 0.00 in0.0 mm 0.00 in0.0 mm 0.00 in0.0 mm
11:00 PM 75.8°F24.3°C 40.0°F4.4°C 28% 1.9 mph NNE3.1 kmh NNE 4.0 mph6.4 kmh 29.85 in1010.8 mb 0.00 in0.0 mm 0.00 in0.0 mm 0.00 in0.0 mm
11:10 PM 75.2°F24.0°C 41.0°F5.0°C 29% 0.9 mph N1.4 kmh N 3.0 mph4.8 kmh 29.85 in1010.8 mb 0.00 in0.0 mm 0.00 in0.0 mm 0.00 in0.0 mm
11:20 PM 74.9°F23.8°C 41.0°F5.0°C 30% 1.2 mph NE1.9 kmh NE 3.0 mph4.8 kmh 29.85 in1010.8 mb 0.00 in0.0 mm 0.00 in0.0 mm 0.00 in0.0 mm
11:30 PM 74.8°F23.8°C 41.0°F5.0°C 30% 2.3 mph N3.7 kmh N 6.0 mph9.7 kmh 29.84 in1010.5 mb 0.00 in0.0 mm 0.00 in0.0 mm 0.00 in0.0 mm
11:40 PM 74.6°F23.7°C 42.0°F5.6°C 31% 3.4 mph N5.5 kmh N 7.0 mph11.3 kmh 29.84 in1010.5 mb 0.00 in0.0 mm 0.00 in0.0 mm 0.00 in0.0 mm
11:50 PM 74.5°F23.6°C 42.0°F5.6°C 31% 3.5 mph NNE5.6 kmh NNE 7.0 mph11.3 kmh 29.84 in1010.5 mb 0.00 in0.0 mm 0.00 in0.0 mm 0.00 in0.0 mm